sensor_id;sensor_type;location;lat;lon;timestamp;P1;durP1;ratioP1;P2;durP2;ratioP2
65206;SDS011;58477;48.072;11.970;2023-08-12T00:02:08;3.22;;;2.50;;
65206;SDS011;58477;48.072;11.970;2023-08-12T00:04:33;2.58;;;2.30;;
65206;SDS011;58477;48.072;11.970;2023-08-12T00:06:59;4.75;;;2.63;;
65206;SDS011;58477;48.072;11.970;2023-08-12T00:09:24;3.92;;;3.05;;
65206;SDS011;58477;48.072;11.970;2023-08-12T00:11:50;2.90;;;2.45;;
65206;SDS011;58477;48.072;11.970;2023-08-12T00:14:15;3.17;;;2.80;;
65206;SDS011;58477;48.072;11.970;2023-08-12T00:16:40;2.75;;;2.55;;
65206;SDS011;58477;48.072;11.970;2023-08-12T00:19:06;3.40;;;2.72;;
65206;SDS011;58477;48.072;11.970;2023-08-12T00:21:33;3.15;;;2.65;;
65206;SDS011;58477;48.072;11.970;2023-08-12T00:23:58;2.65;;;2.20;;
65206;SDS011;58477;48.072;11.970;2023-08-12T00:26:24;3.10;;;2.70;;
65206;SDS011;58477;48.072;11.970;2023-08-12T00:28:50;3.35;;;2.92;;
65206;SDS011;58477;48.072;11.970;2023-08-12T00:31:16;3.83;;;2.13;;
65206;SDS011;58477;48.072;11.970;2023-08-12T00:33:42;2.85;;;2.65;;
65206;SDS011;58477;48.072;11.970;2023-08-12T00:36:07;2.40;;;2.20;;
65206;SDS011;58477;48.072;11.970;2023-08-12T00:38:33;2.72;;;2.47;;
65206;SDS011;58477;48.072;11.970;2023-08-12T00:40:58;4.03;;;2.72;;
65206;SDS011;58477;48.072;11.970;2023-08-12T00:43:23;3.25;;;2.60;;
65206;SDS011;58477;48.072;11.970;2023-08-12T00:45:49;3.00;;;2.40;;
65206;SDS011;58477;48.072;11.970;2023-08-12T00:48:15;3.88;;;2.50;;
65206;SDS011;58477;48.072;11.970;2023-08-12T00:50:42;3.67;;;2.60;;
65206;SDS011;58477;48.072;11.970;2023-08-12T00:53:08;2.63;;;2.40;;
65206;SDS011;58477;48.072;11.970;2023-08-12T00:55:36;2.72;;;2.30;;
65206;SDS011;58477;48.072;11.970;2023-08-12T00:58:01;5.40;;;2.22;;
65206;SDS011;58477;48.072;11.970;2023-08-12T01:00:28;2.60;;;2.40;;
65206;SDS011;58477;48.072;11.970;2023-08-12T01:02:53;5.30;;;2.78;;
65206;SDS011;58477;48.072;11.970;2023-08-12T01:05:21;3.65;;;2.15;;
65206;SDS011;58477;48.072;11.970;2023-08-12T01:07:46;4.85;;;2.40;;
65206;SDS011;58477;48.072;11.970;2023-08-12T01:10:13;2.65;;;2.30;;
65206;SDS011;58477;48.072;11.970;2023-08-12T01:12:48;6.78;;;2.70;;
65206;SDS011;58477;48.072;11.970;2023-08-12T01:15:20;3.35;;;2.70;;
65206;SDS011;58477;48.072;11.970;2023-08-12T01:17:48;4.18;;;2.67;;
65206;SDS011;58477;48.072;11.970;2023-08-12T01:20:17;2.80;;;2.50;;
65206;SDS011;58477;48.072;11.970;2023-08-12T01:22:57;2.08;;;1.98;;
65206;SDS011;58477;48.072;11.970;2023-08-12T01:25:26;2.83;;;2.50;;
65206;SDS011;58477;48.072;11.970;2023-08-12T01:27:52;2.50;;;2.30;;
65206;SDS011;58477;48.072;11.970;2023-08-12T01:30:18;8.10;;;2.67;;
65206;SDS011;58477;48.072;11.970;2023-08-12T01:35:24;3.42;;;2.72;;
65206;SDS011;58477;48.072;11.970;2023-08-12T01:37:57;3.05;;;2.47;;
65206;SDS011;58477;48.072;11.970;2023-08-12T01:40:23;3.13;;;2.75;;
65206;SDS011;58477;48.072;11.970;2023-08-12T01:42:49;7.95;;;2.33;;
65206;SDS011;58477;48.072;11.970;2023-08-12T01:45:15;4.40;;;2.60;;
65206;SDS011;58477;48.072;11.970;2023-08-12T01:47:43;2.88;;;2.67;;
65206;SDS011;58477;48.072;11.970;2023-08-12T01:50:09;2.53;;;2.33;;
65206;SDS011;58477;48.072;11.970;2023-08-12T01:52:35;4.43;;;2.78;;
65206;SDS011;58477;48.072;11.970;2023-08-12T01:55:00;2.88;;;2.53;;
65206;SDS011;58477;48.072;11.970;2023-08-12T01:57:26;3.60;;;2.55;;
65206;SDS011;58477;48.072;11.970;2023-08-12T01:59:51;2.60;;;2.33;;
65206;SDS011;58477;48.072;11.970;2023-08-12T02:02:17;4.75;;;2.40;;
65206;SDS011;58477;48.072;11.970;2023-08-12T02:04:42;2.97;;;2.50;;
65206;SDS011;58477;48.072;11.970;2023-08-12T02:07:09;3.00;;;2.70;;
65206;SDS011;58477;48.072;11.970;2023-08-12T02:09:35;3.55;;;2.50;;
65206;SDS011;58477;48.072;11.970;2023-08-12T02:12:01;5.15;;;2.45;;
65206;SDS011;58477;48.072;11.970;2023-08-12T02:14:26;7.40;;;2.65;;
65206;SDS011;58477;48.072;11.970;2023-08-12T02:16:52;2.70;;;2.50;;
65206;SDS011;58477;48.072;11.970;2023-08-12T02:19:17;5.35;;;2.33;;
65206;SDS011;58477;48.072;11.970;2023-08-12T02:21:42;2.58;;;2.38;;
65206;SDS011;58477;48.072;11.970;2023-08-12T02:24:08;3.13;;;2.50;;
65206;SDS011;58477;48.072;11.970;2023-08-12T02:26:36;4.95;;;2.55;;
65206;SDS011;58477;48.072;11.970;2023-08-12T02:29:02;2.83;;;2.58;;
65206;SDS011;58477;48.072;11.970;2023-08-12T02:31:28;3.38;;;2.60;;
65206;SDS011;58477;48.072;11.970;2023-08-12T02:33:53;2.47;;;2.28;;
65206;SDS011;58477;48.072;11.970;2023-08-12T02:36:19;2.78;;;2.30;;
65206;SDS011;58477;48.072;11.970;2023-08-12T02:38:44;2.88;;;2.58;;
65206;SDS011;58477;48.072;11.970;2023-08-12T02:41:10;3.00;;;2.70;;
65206;SDS011;58477;48.072;11.970;2023-08-12T02:43:35;3.25;;;2.60;;
65206;SDS011;58477;48.072;11.970;2023-08-12T02:46:01;2.97;;;2.55;;
65206;SDS011;58477;48.072;11.970;2023-08-12T02:48:27;3.25;;;2.60;;
65206;SDS011;58477;48.072;11.970;2023-08-12T02:50:52;2.72;;;2.45;;
65206;SDS011;58477;48.072;11.970;2023-08-12T02:53:18;3.70;;;2.50;;
65206;SDS011;58477;48.072;11.970;2023-08-12T02:55:46;3.28;;;2.65;;
65206;SDS011;58477;48.072;11.970;2023-08-12T02:58:12;4.85;;;2.95;;
65206;SDS011;58477;48.072;11.970;2023-08-12T03:00:40;2.50;;;2.30;;
65206;SDS011;58477;48.072;11.970;2023-08-12T03:03:07;2.47;;;2.25;;
65206;SDS011;58477;48.072;11.970;2023-08-12T03:05:32;3.40;;;2.40;;
65206;SDS011;58477;48.072;11.970;2023-08-12T03:07:58;2.47;;;2.28;;
65206;SDS011;58477;48.072;11.970;2023-08-12T03:10:26;1.95;;;1.83;;
65206;SDS011;58477;48.072;11.970;2023-08-12T03:12:52;3.10;;;2.60;;
65206;SDS011;58477;48.072;11.970;2023-08-12T03:15:20;2.20;;;2.00;;
65206;SDS011;58477;48.072;11.970;2023-08-12T03:17:46;2.42;;;2.20;;
65206;SDS011;58477;48.072;11.970;2023-08-12T03:20:12;2.67;;;2.40;;
65206;SDS011;58477;48.072;11.970;2023-08-12T03:22:38;3.10;;;2.42;;
65206;SDS011;58477;48.072;11.970;2023-08-12T03:25:04;4.82;;;2.60;;
65206;SDS011;58477;48.072;11.970;2023-08-12T03:27:31;2.55;;;2.15;;
65206;SDS011;58477;48.072;11.970;2023-08-12T03:29:57;3.25;;;2.55;;
65206;SDS011;58477;48.072;11.970;2023-08-12T03:32:23;3.22;;;2.92;;
65206;SDS011;58477;48.072;11.970;2023-08-12T03:34:51;2.80;;;2.30;;
65206;SDS011;58477;48.072;11.970;2023-08-12T03:37:17;3.97;;;2.50;;
65206;SDS011;58477;48.072;11.970;2023-08-12T03:39:43;4.03;;;2.53;;
65206;SDS011;58477;48.072;11.970;2023-08-12T03:42:08;4.20;;;2.83;;
65206;SDS011;58477;48.072;11.970;2023-08-12T03:44:34;2.88;;;2.60;;
65206;SDS011;58477;48.072;11.970;2023-08-12T03:46:59;2.65;;;2.42;;
65206;SDS011;58477;48.072;11.970;2023-08-12T03:49:26;5.60;;;2.67;;
65206;SDS011;58477;48.072;11.970;2023-08-12T03:51:51;4.45;;;2.55;;
65206;SDS011;58477;48.072;11.970;2023-08-12T03:54:18;5.95;;;2.50;;
65206;SDS011;58477;48.072;11.970;2023-08-12T03:56:43;4.13;;;2.83;;
65206;SDS011;58477;48.072;11.970;2023-08-12T03:59:09;6.22;;;2.80;;
65206;SDS011;58477;48.072;11.970;2023-08-12T04:01:35;3.10;;;2.75;;
65206;SDS011;58477;48.072;11.970;2023-08-12T04:04:01;5.78;;;2.60;;
65206;SDS011;58477;48.072;11.970;2023-08-12T04:06:27;5.82;;;3.03;;
65206;SDS011;58477;48.072;11.970;2023-08-12T04:08:53;2.95;;;2.75;;
65206;SDS011;58477;48.072;11.970;2023-08-12T04:11:18;5.93;;;2.75;;
65206;SDS011;58477;48.072;11.970;2023-08-12T04:13:45;4.40;;;3.10;;
65206;SDS011;58477;48.072;11.970;2023-08-12T04:16:11;3.95;;;2.92;;
65206;SDS011;58477;48.072;11.970;2023-08-12T04:18:37;6.07;;;3.20;;
65206;SDS011;58477;48.072;11.970;2023-08-12T04:21:03;4.40;;;3.38;;
65206;SDS011;58477;48.072;11.970;2023-08-12T04:23:28;3.25;;;2.80;;
65206;SDS011;58477;48.072;11.970;2023-08-12T04:25:54;4.22;;;3.10;;
65206;SDS011;58477;48.072;11.970;2023-08-12T04:28:23;4.90;;;2.90;;
65206;SDS011;58477;48.072;11.970;2023-08-12T04:30:49;3.25;;;2.95;;
65206;SDS011;58477;48.072;11.970;2023-08-12T04:33:19;3.30;;;3.00;;
65206;SDS011;58477;48.072;11.970;2023-08-12T04:35:48;3.85;;;3.13;;
65206;SDS011;58477;48.072;11.970;2023-08-12T04:38:15;2.97;;;2.75;;
65206;SDS011;58477;48.072;11.970;2023-08-12T04:40:42;3.47;;;3.05;;
65206;SDS011;58477;48.072;11.970;2023-08-12T04:43:08;9.52;;;2.60;;
65206;SDS011;58477;48.072;11.970;2023-08-12T04:45:34;3.60;;;2.80;;
65206;SDS011;58477;48.072;11.970;2023-08-12T04:48:01;5.55;;;3.05;;
65206;SDS011;58477;48.072;11.970;2023-08-12T04:50:31;3.58;;;2.50;;
65206;SDS011;58477;48.072;11.970;2023-08-12T04:52:59;4.80;;;3.20;;
65206;SDS011;58477;48.072;11.970;2023-08-12T04:55:24;3.10;;;2.80;;
65206;SDS011;58477;48.072;11.970;2023-08-12T04:57:50;3.03;;;2.72;;
65206;SDS011;58477;48.072;11.970;2023-08-12T05:00:16;3.25;;;2.67;;
65206;SDS011;58477;48.072;11.970;2023-08-12T05:02:42;3.30;;;2.42;;
65206;SDS011;58477;48.072;11.970;2023-08-12T05:05:08;4.32;;;2.92;;
65206;SDS011;58477;48.072;11.970;2023-08-12T05:07:34;3.17;;;2.88;;
65206;SDS011;58477;48.072;11.970;2023-08-12T05:10:01;3.38;;;2.53;;
65206;SDS011;58477;48.072;11.970;2023-08-12T05:12:28;3.72;;;2.50;;
65206;SDS011;58477;48.072;11.970;2023-08-12T05:14:53;2.65;;;2.45;;
65206;SDS011;58477;48.072;11.970;2023-08-12T05:17:19;2.67;;;2.47;;
65206;SDS011;58477;48.072;11.970;2023-08-12T05:19:45;3.25;;;2.40;;
65206;SDS011;58477;48.072;11.970;2023-08-12T05:22:10;2.50;;;2.30;;
65206;SDS011;58477;48.072;11.970;2023-08-12T05:24:36;2.35;;;2.13;;
65206;SDS011;58477;48.072;11.970;2023-08-12T05:27:02;2.40;;;2.20;;
65206;SDS011;58477;48.072;11.970;2023-08-12T05:29:29;3.33;;;2.35;;
65206;SDS011;58477;48.072;11.970;2023-08-12T05:31:55;2.60;;;2.33;;
65206;SDS011;58477;48.072;11.970;2023-08-12T05:34:20;2.80;;;2.40;;
65206;SDS011;58477;48.072;11.970;2023-08-12T05:36:45;4.93;;;2.22;;
65206;SDS011;58477;48.072;11.970;2023-08-12T05:39:11;3.45;;;2.13;;
65206;SDS011;58477;48.072;11.970;2023-08-12T05:41:36;3.03;;;1.98;;
65206;SDS011;58477;48.072;11.970;2023-08-12T05:44:02;3.28;;;2.75;;
65206;SDS011;58477;48.072;11.970;2023-08-12T05:46:28;2.55;;;2.10;;
65206;SDS011;58477;48.072;11.970;2023-08-12T05:48:53;2.53;;;2.03;;
65206;SDS011;58477;48.072;11.970;2023-08-12T05:51:19;2.65;;;2.30;;
65206;SDS011;58477;48.072;11.970;2023-08-12T05:53:44;3.53;;;2.20;;
65206;SDS011;58477;48.072;11.970;2023-08-12T05:56:10;3.63;;;2.17;;
65206;SDS011;58477;48.072;11.970;2023-08-12T05:58:35;2.75;;;2.38;;
65206;SDS011;58477;48.072;11.970;2023-08-12T06:01:01;2.22;;;2.03;;
65206;SDS011;58477;48.072;11.970;2023-08-12T06:03:27;2.22;;;2.10;;
65206;SDS011;58477;48.072;11.970;2023-08-12T06:05:53;2.65;;;1.90;;
65206;SDS011;58477;48.072;11.970;2023-08-12T06:08:18;2.20;;;2.00;;
65206;SDS011;58477;48.072;11.970;2023-08-12T06:10:44;2.30;;;2.10;;
65206;SDS011;58477;48.072;11.970;2023-08-12T06:13:09;2.92;;;2.05;;
65206;SDS011;58477;48.072;11.970;2023-08-12T06:15:35;2.17;;;1.98;;
65206;SDS011;58477;48.072;11.970;2023-08-12T06:18:01;2.47;;;2.00;;
65206;SDS011;58477;48.072;11.970;2023-08-12T06:20:27;6.65;;;2.28;;
65206;SDS011;58477;48.072;11.970;2023-08-12T06:22:52;3.22;;;1.95;;
65206;SDS011;58477;48.072;11.970;2023-08-12T06:25:18;2.33;;;2.13;;
65206;SDS011;58477;48.072;11.970;2023-08-12T06:27:45;5.05;;;1.90;;
65206;SDS011;58477;48.072;11.970;2023-08-12T06:30:11;2.85;;;2.20;;
65206;SDS011;58477;48.072;11.970;2023-08-12T06:32:37;2.75;;;2.20;;
65206;SDS011;58477;48.072;11.970;2023-08-12T06:35:03;3.55;;;2.15;;
65206;SDS011;58477;48.072;11.970;2023-08-12T06:37:28;2.25;;;2.05;;
65206;SDS011;58477;48.072;11.970;2023-08-12T06:39:54;2.58;;;1.90;;
65206;SDS011;58477;48.072;11.970;2023-08-12T06:42:20;2.35;;;2.10;;
65206;SDS011;58477;48.072;11.970;2023-08-12T06:44:49;2.88;;;2.08;;
65206;SDS011;58477;48.072;11.970;2023-08-12T06:47:19;2.22;;;1.98;;
65206;SDS011;58477;48.072;11.970;2023-08-12T06:49:44;2.42;;;2.10;;
65206;SDS011;58477;48.072;11.970;2023-08-12T06:52:10;4.65;;;2.00;;
65206;SDS011;58477;48.072;11.970;2023-08-12T06:54:35;2.42;;;2.22;;
65206;SDS011;58477;48.072;11.970;2023-08-12T06:57:01;2.05;;;1.95;;
65206;SDS011;58477;48.072;11.970;2023-08-12T06:59:26;2.95;;;2.58;;
65206;SDS011;58477;48.072;11.970;2023-08-12T07:01:51;4.07;;;2.15;;
65206;SDS011;58477;48.072;11.970;2023-08-12T07:04:17;2.75;;;2.30;;
65206;SDS011;58477;48.072;11.970;2023-08-12T07:06:42;3.40;;;2.28;;
65206;SDS011;58477;48.072;11.970;2023-08-12T07:09:08;3.05;;;2.22;;
65206;SDS011;58477;48.072;11.970;2023-08-12T07:11:33;2.20;;;2.00;;
65206;SDS011;58477;48.072;11.970;2023-08-12T07:13:59;5.93;;;2.08;;
65206;SDS011;58477;48.072;11.970;2023-08-12T07:16:24;2.47;;;2.20;;
65206;SDS011;58477;48.072;11.970;2023-08-12T07:18:49;2.75;;;1.90;;
65206;SDS011;58477;48.072;11.970;2023-08-12T07:21:15;2.20;;;2.00;;
65206;SDS011;58477;48.072;11.970;2023-08-12T07:23:40;2.67;;;2.13;;
65206;SDS011;58477;48.072;11.970;2023-08-12T07:26:06;2.60;;;2.22;;
65206;SDS011;58477;48.072;11.970;2023-08-12T07:28:32;2.75;;;2.35;;
65206;SDS011;58477;48.072;11.970;2023-08-12T07:30:59;2.67;;;1.73;;
65206;SDS011;58477;48.072;11.970;2023-08-12T07:33:26;2.42;;;2.13;;
65206;SDS011;58477;48.072;11.970;2023-08-12T07:35:51;2.90;;;2.17;;
65206;SDS011;58477;48.072;11.970;2023-08-12T07:38:16;2.47;;;2.08;;
65206;SDS011;58477;48.072;11.970;2023-08-12T07:40:42;2.10;;;1.90;;
65206;SDS011;58477;48.072;11.970;2023-08-12T07:43:07;3.67;;;2.28;;
65206;SDS011;58477;48.072;11.970;2023-08-12T07:45:33;4.85;;;2.10;;
65206;SDS011;58477;48.072;11.970;2023-08-12T07:47:58;3.25;;;2.20;;
65206;SDS011;58477;48.072;11.970;2023-08-12T07:50:24;6.20;;;2.30;;
65206;SDS011;58477;48.072;11.970;2023-08-12T07:52:49;2.30;;;2.00;;
65206;SDS011;58477;48.072;11.970;2023-08-12T07:55:15;2.38;;;1.98;;
65206;SDS011;58477;48.072;11.970;2023-08-12T07:57:41;2.13;;;1.90;;
65206;SDS011;58477;48.072;11.970;2023-08-12T08:00:07;6.43;;;1.83;;
65206;SDS011;58477;48.072;11.970;2023-08-12T08:02:33;3.53;;;1.85;;
65206;SDS011;58477;48.072;11.970;2023-08-12T08:04:58;2.40;;;2.20;;
65206;SDS011;58477;48.072;11.970;2023-08-12T08:07:24;2.15;;;1.98;;
65206;SDS011;58477;48.072;11.970;2023-08-12T08:09:50;3.58;;;1.85;;
65206;SDS011;58477;48.072;11.970;2023-08-12T08:12:16;2.20;;;1.95;;
65206;SDS011;58477;48.072;11.970;2023-08-12T08:14:42;2.05;;;1.88;;
65206;SDS011;58477;48.072;11.970;2023-08-12T08:17:07;2.17;;;1.98;;
65206;SDS011;58477;48.072;11.970;2023-08-12T08:19:33;3.28;;;1.88;;
65206;SDS011;58477;48.072;11.970;2023-08-12T08:21:58;3.40;;;1.90;;
65206;SDS011;58477;48.072;11.970;2023-08-12T08:24:24;2.28;;;1.88;;
65206;SDS011;58477;48.072;11.970;2023-08-12T08:26:50;1.67;;;1.58;;
65206;SDS011;58477;48.072;11.970;2023-08-12T08:29:15;2.33;;;1.95;;
65206;SDS011;58477;48.072;11.970;2023-08-12T08:31:41;4.47;;;2.25;;
65206;SDS011;58477;48.072;11.970;2023-08-12T08:34:06;2.83;;;1.90;;
65206;SDS011;58477;48.072;11.970;2023-08-12T08:36:32;2.13;;;1.80;;
65206;SDS011;58477;48.072;11.970;2023-08-12T08:38:57;1.73;;;1.63;;
65206;SDS011;58477;48.072;11.970;2023-08-12T08:41:30;1.70;;;1.60;;
65206;SDS011;58477;48.072;11.970;2023-08-12T08:43:59;2.10;;;1.92;;
65206;SDS011;58477;48.072;11.970;2023-08-12T08:46:27;5.00;;;1.93;;
65206;SDS011;58477;48.072;11.970;2023-08-12T08:48:53;2.05;;;1.90;;
65206;SDS011;58477;48.072;11.970;2023-08-12T08:51:19;2.42;;;1.65;;
65206;SDS011;58477;48.072;11.970;2023-08-12T08:53:45;2.10;;;1.90;;
65206;SDS011;58477;48.072;11.970;2023-08-12T08:56:11;7.15;;;1.95;;
65206;SDS011;58477;48.072;11.970;2023-08-12T08:58:38;3.97;;;1.98;;
65206;SDS011;58477;48.072;11.970;2023-08-12T09:01:05;2.67;;;2.10;;
65206;SDS011;58477;48.072;11.970;2023-08-12T09:03:35;1.90;;;1.80;;
65206;SDS011;58477;48.072;11.970;2023-08-12T09:06:02;2.50;;;1.90;;
65206;SDS011;58477;48.072;11.970;2023-08-12T09:08:29;2.30;;;2.10;;
65206;SDS011;58477;48.072;11.970;2023-08-12T09:10:57;2.53;;;2.00;;
65206;SDS011;58477;48.072;11.970;2023-08-12T09:13:24;3.03;;;1.75;;
65206;SDS011;58477;48.072;11.970;2023-08-12T09:15:50;2.25;;;2.03;;
65206;SDS011;58477;48.072;11.970;2023-08-12T09:18:16;2.25;;;1.80;;
65206;SDS011;58477;48.072;11.970;2023-08-12T09:20:43;1.73;;;1.63;;
65206;SDS011;58477;48.072;11.970;2023-08-12T09:23:08;2.47;;;2.28;;
65206;SDS011;58477;48.072;11.970;2023-08-12T09:25:41;2.10;;;1.90;;
65206;SDS011;58477;48.072;11.970;2023-08-12T09:28:10;1.90;;;1.80;;
65206;SDS011;58477;48.072;11.970;2023-08-12T09:30:36;2.45;;;1.90;;
65206;SDS011;58477;48.072;11.970;2023-08-12T09:33:06;1.77;;;1.67;;
65206;SDS011;58477;48.072;11.970;2023-08-12T09:38:06;2.10;;;1.95;;
65206;SDS011;58477;48.072;11.970;2023-08-12T09:40:33;2.00;;;1.90;;
65206;SDS011;58477;48.072;11.970;2023-08-12T09:43:00;2.10;;;1.90;;
65206;SDS011;58477;48.072;11.970;2023-08-12T09:45:26;2.20;;;2.00;;
65206;SDS011;58477;48.072;11.970;2023-08-12T09:47:52;1.98;;;1.80;;
65206;SDS011;58477;48.072;11.970;2023-08-12T09:50:21;3.25;;;1.70;;
65206;SDS011;58477;48.072;11.970;2023-08-12T09:52:50;2.13;;;1.95;;
65206;SDS011;58477;48.072;11.970;2023-08-12T09:55:17;2.28;;;2.08;;
65206;SDS011;58477;48.072;11.970;2023-08-12T09:57:43;2.30;;;2.10;;
65206;SDS011;58477;48.072;11.970;2023-08-12T10:00:12;4.40;;;2.00;;
65206;SDS011;58477;48.072;11.970;2023-08-12T10:02:45;2.00;;;1.80;;
65206;SDS011;58477;48.072;11.970;2023-08-12T10:05:13;2.50;;;1.88;;
65206;SDS011;58477;48.072;11.970;2023-08-12T10:07:43;2.22;;;2.03;;
65206;SDS011;58477;48.072;11.970;2023-08-12T10:10:11;2.05;;;1.95;;
65206;SDS011;58477;48.072;11.970;2023-08-12T10:12:38;1.80;;;1.70;;
65206;SDS011;58477;48.072;11.970;2023-08-12T10:15:04;1.83;;;1.73;;
65206;SDS011;58477;48.072;11.970;2023-08-12T10:17:31;2.17;;;2.00;;
65206;SDS011;58477;48.072;11.970;2023-08-12T10:19:58;2.80;;;1.70;;
65206;SDS011;58477;48.072;11.970;2023-08-12T10:22:33;4.82;;;2.03;;
65206;SDS011;58477;48.072;11.970;2023-08-12T10:25:03;4.25;;;2.10;;
65206;SDS011;58477;48.072;11.970;2023-08-12T10:27:29;2.00;;;1.90;;
65206;SDS011;58477;48.072;11.970;2023-08-12T10:29:57;2.08;;;1.88;;
65206;SDS011;58477;48.072;11.970;2023-08-12T10:32:24;2.63;;;1.80;;
65206;SDS011;58477;48.072;11.970;2023-08-12T10:34:59;2.80;;;2.00;;
65206;SDS011;58477;48.072;11.970;2023-08-12T10:37:25;5.03;;;1.98;;
65206;SDS011;58477;48.072;11.970;2023-08-12T10:39:51;2.00;;;1.90;;
65206;SDS011;58477;48.072;11.970;2023-08-12T10:45:09;1.77;;;1.67;;
65206;SDS011;58477;48.072;11.970;2023-08-12T10:47:42;2.22;;;2.03;;
65206;SDS011;58477;48.072;11.970;2023-08-12T10:50:34;2.95;;;1.65;;
65206;SDS011;58477;48.072;11.970;2023-08-12T10:52:59;2.30;;;1.80;;
65206;SDS011;58477;48.072;11.970;2023-08-12T10:55:49;1.90;;;1.80;;
65206;SDS011;58477;48.072;11.970;2023-08-12T10:58:34;2.00;;;1.90;;
65206;SDS011;58477;48.072;11.970;2023-08-12T11:01:08;6.05;;;1.80;;
65206;SDS011;58477;48.072;11.970;2023-08-12T11:03:38;2.25;;;1.90;;
65206;SDS011;58477;48.072;11.970;2023-08-12T11:06:07;2.42;;;2.22;;
65206;SDS011;58477;48.072;11.970;2023-08-12T11:08:35;1.90;;;1.80;;
65206;SDS011;58477;48.072;11.970;2023-08-12T11:11:01;1.95;;;1.80;;
65206;SDS011;58477;48.072;11.970;2023-08-12T11:13:27;1.77;;;1.67;;
65206;SDS011;58477;48.072;11.970;2023-08-12T11:15:53;2.13;;;1.90;;
65206;SDS011;58477;48.072;11.970;2023-08-12T11:18:31;8.70;;;2.13;;
65206;SDS011;58477;48.072;11.970;2023-08-12T11:20:57;2.20;;;2.00;;
65206;SDS011;58477;48.072;11.970;2023-08-12T11:23:23;3.63;;;1.95;;
65206;SDS011;58477;48.072;11.970;2023-08-12T11:25:48;2.45;;;1.67;;
65206;SDS011;58477;48.072;11.970;2023-08-12T11:28:15;2.60;;;1.70;;
65206;SDS011;58477;48.072;11.970;2023-08-12T11:30:44;3.78;;;2.22;;
65206;SDS011;58477;48.072;11.970;2023-08-12T11:33:10;3.38;;;1.80;;
65206;SDS011;58477;48.072;11.970;2023-08-12T11:35:36;2.45;;;2.00;;
65206;SDS011;58477;48.072;11.970;2023-08-12T11:38:03;1.80;;;1.70;;
65206;SDS011;58477;48.072;11.970;2023-08-12T11:40:30;6.22;;;1.67;;
65206;SDS011;58477;48.072;11.970;2023-08-12T11:42:56;1.77;;;1.67;;
65206;SDS011;58477;48.072;11.970;2023-08-12T11:45:23;1.90;;;1.80;;
65206;SDS011;58477;48.072;11.970;2023-08-12T11:47:50;2.22;;;1.60;;
65206;SDS011;58477;48.072;11.970;2023-08-12T11:50:20;9.18;;;1.83;;
65206;SDS011;58477;48.072;11.970;2023-08-12T11:52:49;2.53;;;1.60;;
65206;SDS011;58477;48.072;11.970;2023-08-12T11:55:16;2.10;;;1.70;;
65206;SDS011;58477;48.072;11.970;2023-08-12T11:57:42;1.80;;;1.70;;
65206;SDS011;58477;48.072;11.970;2023-08-12T12:00:09;1.98;;;1.73;;
65206;SDS011;58477;48.072;11.970;2023-08-12T12:02:39;2.75;;;1.83;;
65206;SDS011;58477;48.072;11.970;2023-08-12T12:05:10;1.95;;;1.70;;
65206;SDS011;58477;48.072;11.970;2023-08-12T12:07:36;1.70;;;1.60;;
65206;SDS011;58477;48.072;11.970;2023-08-12T12:10:02;1.63;;;1.52;;
65206;SDS011;58477;48.072;11.970;2023-08-12T12:12:27;1.90;;;1.80;;
65206;SDS011;58477;48.072;11.970;2023-08-12T12:14:53;1.65;;;1.55;;
65206;SDS011;58477;48.072;11.970;2023-08-12T12:17:21;2.55;;;1.50;;
65206;SDS011;58477;48.072;11.970;2023-08-12T12:19:51;2.17;;;1.80;;
65206;SDS011;58477;48.072;11.970;2023-08-12T12:22:22;1.70;;;1.60;;
65206;SDS011;58477;48.072;11.970;2023-08-12T12:24:51;2.60;;;1.70;;
65206;SDS011;58477;48.072;11.970;2023-08-12T12:27:17;1.60;;;1.50;;
65206;SDS011;58477;48.072;11.970;2023-08-12T12:29:42;2.17;;;1.70;;
65206;SDS011;58477;48.072;11.970;2023-08-12T12:32:08;2.13;;;1.40;;
65206;SDS011;58477;48.072;11.970;2023-08-12T12:34:34;2.00;;;1.80;;
65206;SDS011;58477;48.072;11.970;2023-08-12T12:36:59;5.28;;;1.60;;
65206;SDS011;58477;48.072;11.970;2023-08-12T12:39:25;4.00;;;1.40;;
65206;SDS011;58477;48.072;11.970;2023-08-12T12:41:50;1.67;;;1.50;;
65206;SDS011;58477;48.072;11.970;2023-08-12T12:44:16;1.80;;;1.60;;
65206;SDS011;58477;48.072;11.970;2023-08-12T12:46:41;1.52;;;1.42;;
65206;SDS011;58477;48.072;11.970;2023-08-12T12:49:06;1.45;;;1.35;;
65206;SDS011;58477;48.072;11.970;2023-08-12T12:51:32;4.40;;;4.00;;
65206;SDS011;58477;48.072;11.970;2023-08-12T12:53:58;1.67;;;1.58;;
65206;SDS011;58477;48.072;11.970;2023-08-12T12:56:23;2.10;;;1.90;;
65206;SDS011;58477;48.072;11.970;2023-08-12T12:58:49;1.83;;;1.65;;
65206;SDS011;58477;48.072;11.970;2023-08-12T13:01:14;1.67;;;1.58;;
65206;SDS011;58477;48.072;11.970;2023-08-12T13:03:40;1.70;;;1.60;;
65206;SDS011;58477;48.072;11.970;2023-08-12T13:06:05;1.58;;;1.45;;
65206;SDS011;58477;48.072;11.970;2023-08-12T13:08:31;2.45;;;1.77;;
65206;SDS011;58477;48.072;11.970;2023-08-12T13:10:57;1.67;;;1.40;;
65206;SDS011;58477;48.072;11.970;2023-08-12T13:13:22;2.25;;;1.63;;
65206;SDS011;58477;48.072;11.970;2023-08-12T13:15:48;2.22;;;1.48;;
65206;SDS011;58477;48.072;11.970;2023-08-12T13:18:14;1.60;;;1.42;;
65206;SDS011;58477;48.072;11.970;2023-08-12T13:20:39;2.53;;;1.40;;
65206;SDS011;58477;48.072;11.970;2023-08-12T13:23:05;7.10;;;1.40;;
65206;SDS011;58477;48.072;11.970;2023-08-12T13:25:31;1.65;;;1.55;;
65206;SDS011;58477;48.072;11.970;2023-08-12T13:27:59;1.75;;;1.60;;
65206;SDS011;58477;48.072;11.970;2023-08-12T13:30:25;1.50;;;1.40;;
65206;SDS011;58477;48.072;11.970;2023-08-12T13:32:50;9.70;;;1.60;;
65206;SDS011;58477;48.072;11.970;2023-08-12T13:35:16;1.70;;;1.45;;
65206;SDS011;58477;48.072;11.970;2023-08-12T13:37:42;1.73;;;1.50;;
65206;SDS011;58477;48.072;11.970;2023-08-12T13:40:08;1.40;;;1.30;;
65206;SDS011;58477;48.072;11.970;2023-08-12T13:42:40;1.58;;;1.30;;
65206;SDS011;58477;48.072;11.970;2023-08-12T13:45:07;1.77;;;1.63;;
65206;SDS011;58477;48.072;11.970;2023-08-12T13:47:33;1.80;;;1.70;;
65206;SDS011;58477;48.072;11.970;2023-08-12T13:49:59;1.55;;;1.45;;
65206;SDS011;58477;48.072;11.970;2023-08-12T13:52:25;1.95;;;1.85;;
65206;SDS011;58477;48.072;11.970;2023-08-12T13:54:50;3.38;;;2.17;;
65206;SDS011;58477;48.072;11.970;2023-08-12T13:57:16;4.47;;;1.77;;
65206;SDS011;58477;48.072;11.970;2023-08-12T13:59:41;1.55;;;1.45;;
65206;SDS011;58477;48.072;11.970;2023-08-12T14:02:09;2.30;;;2.10;;
65206;SDS011;58477;48.072;11.970;2023-08-12T14:04:35;1.58;;;1.48;;
65206;SDS011;58477;48.072;11.970;2023-08-12T14:07:00;2.05;;;1.52;;
65206;SDS011;58477;48.072;11.970;2023-08-12T14:09:26;1.65;;;1.50;;
65206;SDS011;58477;48.072;11.970;2023-08-12T14:11:51;3.83;;;1.40;;
65206;SDS011;58477;48.072;11.970;2023-08-12T14:14:17;2.53;;;1.80;;
65206;SDS011;58477;48.072;11.970;2023-08-12T14:16:42;1.80;;;1.70;;
65206;SDS011;58477;48.072;11.970;2023-08-12T14:19:08;2.25;;;1.50;;
65206;SDS011;58477;48.072;11.970;2023-08-12T14:21:33;1.90;;;1.80;;
65206;SDS011;58477;48.072;11.970;2023-08-12T14:23:59;1.77;;;1.60;;
65206;SDS011;58477;48.072;11.970;2023-08-12T14:26:24;2.75;;;1.40;;
65206;SDS011;58477;48.072;11.970;2023-08-12T14:28:50;2.20;;;2.00;;
65206;SDS011;58477;48.072;11.970;2023-08-12T14:31:15;2.90;;;1.73;;
65206;SDS011;58477;48.072;11.970;2023-08-12T14:33:40;3.97;;;1.63;;
65206;SDS011;58477;48.072;11.970;2023-08-12T14:36:06;1.83;;;1.52;;
65206;SDS011;58477;48.072;11.970;2023-08-12T14:38:31;2.50;;;1.67;;